Terminal Aerodrome Forecast
Issued by NWS Shreveport, LA

Home | Current Version | Previous Version | Text Only | Print | Product List | Glossary On
Versions: 1 2 3 4 5 6 7 8 9 10 11 12 13 14 15 16 17 18 19 20
000
FTUS44 KSHV 302341
TAFTYR
TAF
KTYR 302341Z 3100/3124 36004KT P6SM VCTS SCT030CB SCT080 BKN120
      TEMPO 3100/3102 VRB10G20KT 5SM -TSRA BR BKN035CB OVC080
     FM310300 36006KT P6SM BKN250
     FM310900 33004KT 5SM BR BKN015
      TEMPO 3110/3114 3SM BR BKN007
     FM311600 34008KT P6SM SCT025 BKN250
     FM311900 34008KT P6SM FEW030=

USA.gov is the U.S. government's official web portal to all federal, state and local government web resources and services.